KMGR/MGR METAR and TAF weather

Enter ICAO airport designator
Station Type Date Time Source
KMGR METAR 2019/10/21 05:35 UTC NOAA

KMGR 210535Z AUTO 00000KT 10SM CLR 16/15 A2999 RMK AO2


Station Type Date Time Source
KMGR Decoded METAR 2019/10/21 05:35 UTC NOAA

Moultrie, Moultrie Municipal Airport, GA, United States (KMGR) 31-05-05N 083-48-11W
Oct 21, 2019 - 01:35 AM EDT / 2019.10.21 0535 UTC
Wind: Calm:0
Visibility: 10 mile(s):0
Sky conditions: clear
Temperature: 60 F (16 C)
Dew Point: 59 F (15 C)
Relative Humidity: 93%
Pressure (altimeter): 29.99 in. Hg (1015 hPa)
ob: KMGR 210535Z AUTO 00000KT 10SM CLR 16/15 A2999 RMK AO2
cycle: 5

Station Type Date Time Source
KMGR TAF UTC NOAA

Error!

Example: see airport list